createdAt,value
2022-09-15T04:01:35.042Z,13.00
2022-09-15T04:04:06.771Z,12.90
2022-09-15T04:06:38.420Z,13.00
2022-09-15T04:09:10.066Z,13.00
2022-09-15T04:11:41.747Z,12.90
2022-09-15T04:14:13.431Z,13.70
2022-09-15T04:16:46.459Z,13.00
2022-09-15T04:19:18.137Z,12.90
2022-09-15T04:21:49.772Z,13.00
2022-09-15T04:24:21.384Z,13.00
2022-09-15T04:26:53.015Z,13.00
2022-09-15T04:29:24.637Z,13.00
2022-09-15T04:31:57.626Z,13.00
2022-09-15T04:34:29.270Z,13.00
2022-09-15T04:37:00.896Z,12.40
2022-09-15T04:39:32.522Z,13.10
2022-09-15T04:42:04.601Z,13.10
2022-09-15T04:44:36.231Z,13.10
2022-09-15T04:47:09.203Z,13.10
2022-09-15T04:49:40.834Z,13.10
2022-09-15T04:52:12.459Z,13.10
2022-09-15T04:54:44.079Z,13.10
2022-09-15T04:57:15.717Z,13.20
2022-09-15T04:59:47.338Z,13.20
2022-09-15T05:02:20.373Z,13.20
2022-09-15T05:04:52.112Z,13.20
2022-09-15T05:07:23.757Z,13.30
2022-09-15T05:09:55.387Z,13.30
2022-09-15T05:12:27.033Z,13.30
2022-09-15T05:14:58.653Z,13.40
2022-09-15T05:17:32.052Z,13.40
2022-09-15T05:20:05.582Z,13.40
2022-09-15T05:22:41.491Z,13.40
2022-09-15T05:25:13.609Z,13.40
2022-09-15T05:27:45.241Z,13.40
2022-09-15T05:30:36.642Z,13.40
2022-09-15T05:33:09.961Z,13.40
2022-09-15T05:35:49.557Z,13.50
2022-09-15T05:38:21.201Z,13.50
2022-09-15T05:40:52.820Z,13.60
2022-09-15T05:43:24.457Z,13.60
2022-09-15T05:45:56.082Z,13.70
2022-09-15T05:48:29.178Z,13.70
2022-09-15T05:51:00.818Z,13.70
2022-09-15T05:53:33.189Z,13.70
2022-09-15T05:56:05.758Z,13.80
2022-09-15T05:58:38.460Z,13.80
2022-09-15T06:01:11.922Z,13.80
2022-09-15T06:03:45.019Z,13.90
2022-09-15T06:06:16.718Z,14.00
2022-09-15T06:08:52.801Z,14.00
2022-09-15T06:11:27.880Z,14.10
2022-09-15T06:13:59.702Z,14.10
2022-09-15T06:16:32.193Z,14.10
2022-09-15T06:19:05.226Z,14.10
2022-09-15T06:21:36.891Z,14.10
2022-09-15T06:24:11.236Z,14.30
2022-09-15T06:26:42.896Z,14.30
2022-09-15T06:29:14.527Z,14.40
2022-09-15T06:31:46.202Z,14.50
2022-09-15T06:34:19.949Z,14.70
2022-09-15T06:36:51.617Z,14.70
2022-09-15T06:39:23.258Z,14.70
2022-09-15T06:42:03.675Z,14.80
2022-09-15T06:44:37.177Z,14.90
2022-09-15T06:47:08.827Z,15.00
2022-09-15T06:49:41.817Z,15.10
2022-09-15T06:52:13.474Z,15.20
2022-09-15T06:54:45.428Z,15.40
2022-09-15T06:57:17.090Z,15.50
2022-09-15T06:59:48.729Z,15.90
2022-09-15T07:02:20.473Z,16.10
2022-09-15T07:04:53.564Z,16.20
2022-09-15T07:07:25.320Z,16.20
2022-09-15T07:09:56.961Z,16.20
2022-09-15T07:12:28.632Z,16.30
2022-09-15T07:15:00.346Z,16.20
2022-09-15T07:17:32.001Z,16.20
2022-09-15T07:20:05.917Z,16.20
2022-09-15T07:22:37.593Z,16.20
2022-09-15T07:25:09.701Z,16.20
2022-09-15T07:27:41.435Z,16.30
2022-09-15T07:30:13.566Z,16.40
2022-09-15T07:32:45.262Z,16.50
2022-09-15T07:35:18.285Z,16.60
2022-09-15T07:37:49.962Z,16.90
2022-09-15T07:40:21.712Z,16.80
2022-09-15T07:42:53.396Z,16.70
2022-09-15T07:45:25.203Z,16.80
2022-09-15T07:47:56.903Z,17.00
2022-09-15T07:50:29.902Z,17.20
2022-09-15T07:53:01.681Z,17.30
2022-09-15T07:55:33.363Z,17.80
2022-09-15T07:58:05.179Z,17.90
2022-09-15T08:00:36.924Z,18.10
2022-09-15T08:03:08.622Z,18.20
2022-09-15T08:05:45.408Z,18.10
2022-09-15T08:08:17.575Z,17.90
2022-09-15T08:10:49.290Z,17.80
2022-09-15T08:13:21.147Z,17.80
2022-09-15T08:18:24.886Z,17.50
2022-09-15T08:20:57.864Z,17.50
2022-09-15T08:23:29.504Z,17.60
2022-09-15T08:26:01.159Z,17.60
2022-09-15T08:28:32.819Z,17.80
2022-09-15T08:31:05.501Z,17.90
2022-09-15T08:33:39.770Z,18.10
2022-09-15T08:36:14.929Z,18.20
2022-09-15T08:38:46.633Z,18.30
2022-09-15T08:41:20.351Z,18.40
2022-09-15T08:43:54.833Z,18.50
2022-09-15T08:54:14.951Z,18.30
2022-09-15T08:59:19.187Z,18.10
2022-09-15T09:01:59.825Z,18.00
2022-09-15T09:04:47.167Z,17.90
2022-09-15T09:07:27.773Z,18.00
2022-09-15T09:10:01.891Z,18.10
2022-09-15T09:12:50.563Z,18.00
2022-09-15T09:15:27.233Z,18.20
2022-09-15T09:18:07.362Z,18.20
2022-09-15T09:20:43.637Z,18.10
2022-09-15T09:23:17.843Z,18.00
2022-09-15T09:25:49.499Z,18.00
2022-09-15T09:28:29.472Z,18.20
2022-09-15T09:31:02.397Z,18.10
2022-09-15T09:33:38.758Z,17.90
2022-09-15T09:36:10.922Z,17.90
2022-09-15T09:38:44.741Z,18.00
2022-09-15T09:41:17.744Z,18.00
2022-09-15T09:43:49.418Z,18.00
2022-09-15T09:46:21.132Z,18.20
2022-09-15T09:48:54.447Z,18.70
2022-09-15T09:51:34.231Z,19.20
2022-09-15T09:54:13.880Z,19.80
2022-09-15T09:56:45.522Z,19.80
2022-09-15T09:59:31.837Z,19.80
2022-09-15T10:02:21.717Z,19.70
2022-09-15T10:04:54.030Z,19.80
2022-09-15T10:07:26.173Z,19.80
2022-09-15T10:10:00.418Z,19.90
2022-09-15T10:12:32.882Z,20.00
2022-09-15T10:15:06.691Z,19.00
2022-09-15T10:17:40.591Z,19.90
2022-09-15T10:20:26.505Z,19.60
2022-09-15T10:23:06.379Z,19.60
2022-09-15T10:25:58.063Z,19.80
2022-09-15T10:28:30.595Z,19.90
2022-09-15T10:31:04.792Z,19.90
2022-09-15T10:33:37.304Z,20.00
2022-09-15T10:36:12.737Z,20.20
2022-09-15T10:38:45.597Z,20.40
2022-09-15T10:41:26.232Z,20.40
2022-09-15T10:44:19.332Z,20.20
2022-09-15T10:46:55.442Z,20.20
2022-09-15T10:49:37.901Z,20.20
2022-09-15T10:52:13.246Z,20.30
2022-09-15T10:55:01.448Z,20.30
2022-09-15T10:57:55.723Z,20.30
2022-09-15T11:00:29.158Z,20.30
2022-09-15T11:03:15.603Z,20.30
2022-09-15T11:05:59.680Z,20.20
2022-09-15T11:08:41.170Z,20.40
2022-09-15T11:11:15.737Z,20.60
2022-09-15T11:13:54.212Z,20.80
2022-09-15T11:16:33.989Z,20.90
2022-09-15T11:19:12.987Z,21.00
2022-09-15T11:21:45.719Z,21.00
2022-09-15T11:24:30.134Z,21.00
2022-09-15T11:27:03.815Z,21.10
2022-09-15T11:29:52.297Z,21.00
2022-09-15T11:32:25.893Z,20.80
2022-09-15T11:34:59.687Z,20.70
2022-09-15T11:37:35.941Z,20.60
2022-09-15T11:40:12.924Z,20.50
2022-09-15T11:42:46.421Z,20.40
2022-09-15T11:45:21.535Z,20.50
2022-09-15T11:47:54.109Z,20.70
2022-09-15T11:50:28.114Z,20.80
2022-09-15T11:53:00.975Z,20.80
2022-09-15T11:55:34.943Z,20.70
2022-09-15T11:58:18.442Z,20.50
2022-09-15T12:00:55.178Z,20.50
2022-09-15T12:03:29.112Z,20.30
2022-09-15T12:06:03.253Z,20.30
2022-09-15T12:08:36.767Z,20.40
2022-09-15T12:11:10.551Z,20.50
2022-09-15T12:13:42.236Z,20.60
2022-09-15T12:16:15.268Z,20.70
2022-09-15T12:18:48.713Z,20.80
2022-09-15T12:21:23.584Z,20.80
2022-09-15T12:23:57.393Z,20.80
2022-09-15T12:26:29.044Z,20.80
2022-09-15T12:29:00.994Z,20.80
2022-09-15T12:31:38.054Z,20.70
2022-09-15T12:34:33.821Z,20.60
2022-09-15T12:37:10.911Z,20.80
2022-09-15T12:39:42.777Z,20.90
2022-09-15T12:42:16.626Z,21.00
2022-09-15T12:44:50.911Z,21.00
2022-09-15T12:47:29.288Z,20.90
2022-09-15T12:50:08.378Z,21.00
2022-09-15T12:52:44.539Z,21.00
2022-09-15T12:55:18.547Z,21.00
2022-09-15T12:57:51.776Z,21.00
2022-09-15T13:00:50.014Z,21.00
2022-09-15T13:04:04.870Z,21.10
2022-09-15T13:06:37.885Z,21.00
2022-09-15T13:09:24.724Z,20.90
2022-09-15T13:11:56.408Z,20.80
2022-09-15T13:14:32.844Z,20.90
2022-09-15T13:17:06.919Z,21.00
2022-09-15T13:19:40.500Z,20.90
2022-09-15T13:22:20.327Z,20.90
2022-09-15T13:24:57.683Z,20.80
2022-09-15T13:27:34.304Z,20.80
2022-09-15T13:30:13.887Z,20.50
2022-09-15T13:32:48.429Z,20.40
2022-09-15T13:35:41.657Z,20.40
2022-09-15T13:38:58.217Z,20.50
2022-09-15T13:41:42.240Z,20.30
2022-09-15T13:44:49.404Z,20.20
2022-09-15T13:47:30.778Z,19.90
2022-09-15T13:50:10.211Z,19.80
2022-09-15T13:53:06.340Z,19.70
2022-09-15T13:55:40.847Z,19.50
2022-09-15T14:01:06.888Z,19.20
2022-09-15T14:03:43.539Z,18.90
2022-09-15T14:06:17.290Z,18.60
2022-09-15T14:08:50.666Z,18.50
2022-09-15T14:11:25.638Z,18.40
2022-09-15T14:13:57.577Z,18.30
2022-09-15T14:16:31.805Z,18.30
2022-09-15T14:19:27.616Z,18.40
2022-09-15T14:21:59.355Z,18.50
2022-09-15T14:24:31.281Z,18.60
2022-09-15T14:27:08.998Z,18.60
2022-09-15T14:29:41.068Z,18.60
2022-09-15T14:32:13.790Z,18.60
2022-09-15T14:34:45.461Z,18.40
2022-09-15T14:37:20.488Z,18.20
2022-09-15T14:39:52.575Z,18.10
2022-09-15T14:42:26.301Z,17.80
2022-09-15T14:47:59.456Z,17.50
2022-09-15T14:50:33.219Z,17.30
2022-09-15T14:53:06.407Z,17.30
2022-09-15T14:55:40.556Z,17.40
2022-09-15T14:58:14.947Z,17.50
2022-09-15T15:00:51.701Z,17.50
2022-09-15T15:03:27.784Z,17.60
2022-09-15T15:06:25.211Z,17.60
2022-09-15T15:08:53.703Z,17.60
2022-09-15T15:11:25.363Z,17.60
2022-09-15T15:13:58.406Z,17.60
2022-09-15T15:16:30.984Z,17.60
2022-09-15T15:19:02.824Z,17.60
2022-09-15T15:21:36.965Z,17.60
2022-09-15T15:24:18.775Z,17.60
2022-09-15T15:26:50.859Z,17.70
2022-09-15T15:29:40.659Z,17.70
2022-09-15T15:32:13.674Z,17.70
2022-09-15T15:34:48.860Z,17.70
2022-09-15T15:37:25.747Z,17.70
2022-09-15T15:39:58.283Z,17.70
2022-09-15T15:42:30.038Z,17.70
2022-09-15T15:45:16.170Z,17.70
2022-09-15T15:47:47.968Z,17.70
2022-09-15T15:50:20.607Z,17.70
2022-09-15T15:52:52.286Z,17.70
2022-09-15T15:55:24.993Z,17.70
2022-09-15T15:57:56.659Z,17.70
2022-09-15T16:00:33.258Z,17.60
2022-09-15T16:03:05.376Z,17.60
2022-09-15T16:05:37.022Z,17.70
2022-09-15T16:08:11.298Z,17.70
2022-09-15T16:10:44.664Z,17.70
2022-09-15T16:13:16.768Z,17.80
2022-09-15T16:15:50.165Z,17.80
2022-09-15T16:18:21.923Z,17.80
2022-09-15T16:20:53.612Z,17.90
2022-09-15T16:23:28.152Z,17.80
2022-09-15T16:26:01.223Z,17.80
2022-09-15T16:28:32.878Z,17.80
2022-09-15T16:31:06.115Z,17.80
2022-09-15T16:33:38.315Z,17.80
2022-09-15T16:36:11.277Z,17.80
2022-09-15T16:38:43.105Z,17.70
2022-09-15T16:41:15.554Z,17.70
2022-09-15T16:43:47.393Z,17.70
2022-09-15T16:46:20.457Z,17.60
2022-09-15T16:48:52.133Z,17.60
2022-09-15T16:51:29.774Z,17.60
2022-09-15T16:54:03.015Z,17.50
2022-09-15T16:56:34.652Z,17.50
2022-09-15T16:59:06.318Z,17.50
2022-09-15T17:01:39.371Z,17.40
2022-09-15T17:04:12.737Z,17.40
2022-09-15T17:06:44.376Z,17.30
2022-09-15T17:09:16.010Z,17.30
2022-09-15T17:11:47.669Z,17.30
2022-09-15T17:14:19.307Z,17.20
2022-09-15T17:16:52.317Z,17.20
2022-09-15T17:19:23.952Z,17.10
2022-09-15T17:21:55.623Z,17.00
2022-09-15T17:24:27.265Z,17.00
2022-09-15T17:26:58.936Z,17.00
2022-09-15T17:29:30.570Z,16.90
2022-09-15T17:32:04.112Z,16.90
2022-09-15T17:34:35.817Z,16.80
2022-09-15T17:37:07.513Z,16.70
2022-09-15T17:39:39.217Z,16.70
2022-09-15T17:42:10.873Z,16.70
2022-09-15T17:44:42.513Z,16.70
2022-09-15T17:47:15.568Z,16.60
2022-09-15T17:49:47.211Z,16.50
2022-09-15T17:52:18.855Z,16.50
2022-09-15T17:54:50.525Z,16.40
2022-09-15T17:57:22.229Z,16.30
2022-09-15T17:59:53.887Z,16.20
2022-09-15T18:02:27.097Z,16.20
2022-09-15T18:04:58.785Z,16.20
2022-09-15T18:07:30.458Z,16.10
2022-09-15T18:10:02.109Z,16.20
2022-09-15T18:12:33.766Z,16.20
2022-09-15T18:15:06.488Z,16.20
2022-09-15T18:17:39.562Z,16.20
2022-09-15T18:20:14.659Z,16.20
2022-09-15T18:22:46.420Z,16.20
2022-09-15T18:25:19.398Z,16.20
2022-09-15T18:27:51.216Z,16.20
2022-09-15T18:30:23.870Z,16.10
2022-09-15T18:32:56.864Z,16.10
2022-09-15T18:35:28.617Z,16.10
2022-09-15T18:38:00.461Z,16.00
2022-09-15T18:40:32.143Z,16.00
2022-09-15T18:43:03.843Z,16.00
2022-09-15T18:45:35.505Z,16.00
2022-09-15T18:48:12.079Z,15.90
2022-09-15T18:50:44.890Z,15.90
2022-09-15T18:53:16.556Z,15.90
2022-09-15T18:55:48.190Z,15.90
2022-09-15T18:58:19.887Z,15.90
2022-09-15T19:00:51.559Z,15.90
2022-09-15T19:03:24.565Z,15.90
2022-09-15T19:05:56.231Z,15.90
2022-09-15T19:08:27.873Z,15.90
2022-09-15T19:10:59.548Z,15.80
2022-09-15T19:13:31.201Z,15.80
2022-09-15T19:16:03.057Z,15.80
2022-09-15T19:18:36.155Z,15.80
2022-09-15T19:21:08.701Z,15.80
2022-09-15T19:23:40.352Z,15.80
2022-09-15T19:26:12.174Z,15.80
2022-09-15T19:28:44.197Z,15.80
2022-09-15T19:31:15.918Z,15.80
2022-09-15T19:33:49.033Z,15.80
2022-09-15T19:36:28.955Z,15.70
2022-09-15T19:39:01.079Z,15.80
2022-09-15T19:41:32.746Z,15.70
2022-09-15T19:44:04.405Z,15.70
2022-09-15T19:46:36.196Z,15.70
2022-09-15T19:49:09.267Z,15.70
2022-09-15T19:51:40.979Z,15.70
2022-09-15T19:54:12.651Z,15.70
2022-09-15T19:56:44.504Z,15.70
2022-09-15T19:59:16.161Z,15.70
2022-09-15T20:01:47.939Z,15.60
2022-09-15T20:04:20.963Z,15.60
2022-09-15T20:06:52.630Z,15.60
2022-09-15T20:09:24.293Z,15.60
2022-09-15T20:11:55.945Z,15.60
2022-09-15T20:14:27.573Z,15.60
2022-09-15T20:17:01.234Z,15.60
2022-09-15T20:19:34.726Z,15.60
2022-09-15T20:22:06.392Z,15.50
2022-09-15T20:24:38.068Z,15.50
2022-09-15T20:27:09.750Z,15.50
2022-09-15T20:29:41.558Z,15.50
2022-09-15T20:32:13.213Z,15.50
2022-09-15T20:34:47.925Z,15.50
2022-09-15T20:37:19.567Z,15.50
2022-09-15T20:39:51.217Z,15.50
2022-09-15T20:42:22.997Z,15.40
2022-09-15T20:44:54.626Z,15.40
2022-09-15T20:47:26.271Z,15.40
2022-09-15T20:49:59.252Z,15.40
2022-09-15T20:52:33.617Z,15.30
2022-09-15T20:55:09.696Z,15.30
2022-09-15T20:57:41.357Z,15.30
2022-09-15T21:00:14.205Z,15.20
2022-09-15T21:02:50.962Z,15.20
2022-09-15T21:05:24.032Z,15.10
2022-09-15T21:07:55.732Z,15.00
2022-09-15T21:10:27.356Z,15.00
2022-09-15T21:12:58.999Z,14.90
2022-09-15T21:15:30.622Z,14.90
2022-09-15T21:18:02.312Z,14.90
2022-09-15T21:20:35.353Z,14.80
2022-09-15T21:23:07.016Z,14.70
2022-09-15T21:25:38.673Z,14.70
2022-09-15T21:28:10.341Z,14.60
2022-09-15T21:30:42.037Z,14.60
2022-09-15T21:33:13.665Z,14.70
2022-09-15T21:35:46.706Z,14.60
2022-09-15T21:38:18.331Z,14.70
2022-09-15T21:40:49.982Z,14.60
2022-09-15T21:43:21.638Z,14.60
2022-09-15T21:45:55.226Z,14.60
2022-09-15T21:48:26.985Z,14.60
2022-09-15T21:51:00.382Z,14.60
2022-09-15T21:53:32.168Z,14.50
2022-09-15T21:56:04.426Z,14.50
2022-09-15T21:58:41.748Z,14.50
